ZWWW/URC METAR and TAF weather

Enter ICAO airport designator
Station Type Date Time Source
ZWWW METAR 2018/12/17 16:30 UTC NOAA

ZWWW 171630Z 36001MPS 2500 BR BKN046 M03/M06 Q1029 NOSIG


Station Type Date Time Source
ZWWW Decoded METAR 2018/12/17 16:30 UTC NOAA

Urum-Qi / Diwopu, China (ZWWW) 43-54N 087-28E
Dec 17, 2018 - 11:30 AM EST / 2018.12.17 1630 UTC
Wind: from the N (360 degrees) at 2 MPH (2 KT):0
Visibility: 1 mile(s):0
Sky conditions: mostly cloudy
Weather: mist
Temperature: 26 F (-3 C)
Dew Point: 21 F (-6 C)
Relative Humidity: 79%
Pressure (altimeter): 30.39 in. Hg (1029 hPa)
ob: ZWWW 171630Z 36001MPS 2500 BR BKN046 M03/M06 Q1029 NOSIG
cycle: 16

Station Type Date Time Source
ZWWW TAF 2018/12/17 18:03 UTC NOAA

TAF ZWWW 171517Z 1718/1818 18003MPS 2500 BR BKN040 TXM02/09Z TNM10/23Z
BECMG 1721/1722 1100 BR
TEMPO 1800/1804 0700 FZFG BKN002
BECMG 1805/1806 34003MPS 1600 FU
BECMG 1812/1813 -SN BR SCT008 OVC020


Example: see airport list